createdAt,value
2022-08-21T18:32:47.335Z,24.82574463
2022-08-21T18:33:57.827Z,24.82574463
2022-08-21T18:34:48.634Z,24.78546143
2022-08-21T18:35:49.088Z,24.73510742
2022-08-21T18:36:49.507Z,24.71496582
2022-08-21T18:37:49.923Z,24.68475342
2022-08-21T18:38:50.367Z,24.66461182
2022-08-21T18:39:50.833Z,24.64447021
2022-08-21T18:40:55.234Z,24.63439941
2022-08-21T18:41:51.736Z,24.60418701
2022-08-21T18:42:58.365Z,24.59411621
2022-08-21T18:43:52.585Z,24.55383301
2022-08-21T18:44:53.915Z,24.52362061
2022-08-21T18:45:54.413Z,24.5135498
2022-08-21T18:46:54.856Z,24.4934082
2022-08-21T18:47:55.305Z,24.4934082
2022-08-21T18:48:55.698Z,24.4631958
2022-08-21T18:49:56.210Z,24.4430542
2022-08-21T18:50:57.675Z,24.4128418
2022-08-21T18:51:58.096Z,24.37255859
2022-08-21T18:52:58.529Z,24.36248779
2022-08-21T18:53:58.930Z,24.34234619
2022-08-21T18:55:05.885Z,24.31213379
2022-08-21T18:56:31.196Z,24.29199219
2022-08-21T18:57:31.611Z,24.27185059
2022-08-21T18:58:32.017Z,24.26177979
2022-08-21T18:59:32.488Z,24.24163818
2022-08-21T19:00:32.909Z,24.24163818
2022-08-21T19:01:33.334Z,24.21142578
2022-08-21T19:02:33.769Z,24.23156738
2022-08-21T19:03:34.225Z,24.19128418
2022-08-21T19:04:43.845Z,24.18121338
2022-08-21T19:05:36.375Z,24.15100098
2022-08-21T19:06:36.059Z,24.15100098
2022-08-21T19:07:36.488Z,24.12078857
2022-08-21T19:08:36.913Z,24.09057617
2022-08-21T19:09:37.416Z,24.09057617
2022-08-21T19:10:37.850Z,24.08050537
2022-08-21T19:11:38.293Z,24.06036377
2022-08-21T19:12:39.633Z,24.05029297
2022-08-21T19:13:40.156Z,23.99993896
2022-08-21T19:14:41.154Z,23.95965576
2022-08-21T19:15:41.750Z,23.92944336
2022-08-21T19:16:42.184Z,23.88916016
2022-08-21T19:17:42.650Z,23.85894775
2022-08-21T19:18:43.130Z,23.85894775
2022-08-21T19:19:43.608Z,23.85894775
2022-08-21T19:20:44.033Z,23.81866455
2022-08-21T19:21:44.478Z,23.80859375
2022-08-21T19:22:48.672Z,23.78845215
2022-08-21T19:23:46.237Z,23.77838135
2022-08-21T19:24:49.765Z,23.74816895
2022-08-21T19:26:48.571Z,23.70788574
2022-08-21T19:27:49.083Z,23.70788574
2022-08-21T19:28:49.575Z,23.70788574
2022-08-21T19:29:50.030Z,23.67767334
2022-08-21T19:30:50.568Z,23.67767334
2022-08-21T19:31:51.650Z,23.66760254
2022-08-21T19:32:52.113Z,23.66760254
2022-08-21T19:33:55.026Z,23.66760254
2022-08-21T19:34:53.690Z,23.67767334
2022-08-21T19:35:54.115Z,23.63739014
2022-08-21T19:36:54.519Z,23.67767334
2022-08-21T19:37:54.918Z,23.67767334
2022-08-21T19:38:55.380Z,23.63739014
2022-08-21T19:39:55.912Z,23.63739014
2022-08-21T19:40:56.321Z,23.61724854
2022-08-21T19:41:56.726Z,23.59710693
2022-08-21T19:42:58.048Z,23.59710693
2022-08-21T19:43:58.380Z,23.58703613
2022-08-21T19:44:59.666Z,23.53668213
2022-08-21T19:46:30.595Z,23.53668213
2022-08-21T19:47:31.041Z,23.53668213
2022-08-21T19:48:31.467Z,23.51654053
2022-08-21T19:49:33.415Z,23.48632813
2022-08-21T19:50:33.437Z,23.44604492
2022-08-21T19:51:33.885Z,23.43597412
2022-08-21T19:52:35.681Z,23.38562012
2022-08-21T19:53:34.721Z,23.40576172
2022-08-21T19:54:35.999Z,23.37554932
2022-08-21T19:55:36.426Z,23.36547852
2022-08-21T19:56:36.864Z,23.34533691
2022-08-21T19:57:37.265Z,23.31512451
2022-08-21T19:58:37.681Z,23.30505371
2022-08-21T19:59:38.241Z,23.29498291
2022-08-21T20:00:38.736Z,23.23455811
2022-08-21T20:02:39.550Z,23.23455811
2022-08-21T20:03:40.685Z,23.2144165
2022-08-21T20:04:53.207Z,23.1942749
2022-08-21T20:05:42.401Z,23.1942749
2022-08-21T20:06:42.828Z,23.1942749
2022-08-21T20:07:43.229Z,23.2144165
2022-08-21T20:08:43.659Z,23.2144165
2022-08-21T20:09:44.248Z,23.1942749
2022-08-21T20:10:44.641Z,23.1942749
2022-08-21T20:11:45.073Z,23.1842041
2022-08-21T20:12:45.483Z,23.1842041
2022-08-21T20:13:45.892Z,23.1640625
2022-08-21T20:14:46.997Z,23.1539917
2022-08-21T20:15:47.446Z,23.1439209
2022-08-21T20:16:47.879Z,23.1237793
2022-08-21T20:17:48.298Z,23.1237793
2022-08-21T20:18:48.742Z,23.1137085
2022-08-21T20:19:54.055Z,23.04321289
2022-08-21T20:20:50.483Z,23.03314209
2022-08-21T20:21:51.026Z,23.00292969
2022-08-21T20:22:52.198Z,22.94250488
2022-08-21T20:23:52.564Z,22.91229248
2022-08-21T20:24:53.965Z,22.86193848
2022-08-21T20:25:54.394Z,22.82165527
2022-08-21T20:26:54.832Z,22.81158447
2022-08-21T20:27:55.238Z,22.82165527
2022-08-21T20:28:55.682Z,22.81158447
2022-08-21T20:29:56.172Z,22.82165527
2022-08-21T20:30:56.684Z,22.82165527
2022-08-21T20:31:57.156Z,22.82165527
2022-08-21T20:32:57.880Z,22.79144287
2022-08-21T20:33:58.639Z,22.78137207
2022-08-21T20:35:00.472Z,22.78137207
2022-08-21T20:36:31.144Z,22.76123047
2022-08-21T20:37:36.267Z,22.75115967
2022-08-21T20:38:32.072Z,22.75115967
2022-08-21T20:39:32.600Z,22.72094727
2022-08-21T20:40:33.157Z,22.72094727
2022-08-21T20:41:33.667Z,22.74108887
2022-08-21T20:42:34.006Z,22.74108887
2022-08-21T20:43:34.433Z,22.74108887
2022-08-21T20:44:34.965Z,22.72094727
2022-08-21T20:45:36.241Z,22.67059326
2022-08-21T20:46:36.669Z,22.67059326
2022-08-21T20:47:37.589Z,22.64038086
2022-08-21T20:48:49.338Z,22.66052246
2022-08-21T20:49:38.090Z,22.63031006
2022-08-21T20:50:39.481Z,22.61016846
2022-08-21T20:51:39.942Z,22.61016846
2022-08-21T20:52:40.367Z,22.61016846
2022-08-21T20:53:43.143Z,22.61016846
2022-08-21T20:54:42.456Z,22.64038086
2022-08-21T20:55:43.020Z,22.66052246
2022-08-21T20:56:44.454Z,22.66052246
2022-08-21T20:57:44.883Z,22.66052246
2022-08-21T20:58:45.349Z,22.64038086
2022-08-21T20:59:45.831Z,22.64038086
2022-08-21T21:00:46.306Z,22.59002686
2022-08-21T21:01:46.724Z,22.50946045
2022-08-21T21:02:47.171Z,22.47924805
2022-08-21T21:03:47.621Z,22.47924805
2022-08-21T21:04:48.961Z,22.47924805
2022-08-21T21:05:49.472Z,22.45910645
2022-08-21T21:06:51.047Z,22.45910645
2022-08-21T21:07:50.469Z,22.43896484
2022-08-21T21:08:50.931Z,22.35839844
2022-08-21T21:09:52.355Z,22.29797363
2022-08-21T21:10:52.843Z,22.29797363
2022-08-21T21:11:53.302Z,22.25769043
2022-08-21T21:12:53.735Z,22.22747803
2022-08-21T21:13:54.212Z,22.23754883
2022-08-21T21:14:55.463Z,22.25769043
2022-08-21T21:15:55.947Z,22.25769043
2022-08-21T21:16:56.354Z,22.23754883
2022-08-21T21:17:56.845Z,22.25769043
2022-08-21T21:18:57.348Z,22.25769043
2022-08-21T21:19:57.906Z,22.20733643
2022-08-21T21:20:58.489Z,22.16705322
2022-08-21T21:22:29.747Z,22.18719482
2022-08-21T21:23:30.002Z,22.22747803
2022-08-21T21:24:30.580Z,22.22747803
2022-08-21T21:25:40.098Z,22.22747803
2022-08-21T21:26:32.299Z,22.22747803
2022-08-21T21:28:33.332Z,22.22747803
2022-08-21T21:29:33.897Z,22.22747803
2022-08-21T21:30:34.364Z,22.22747803
2022-08-21T21:31:34.858Z,22.26776123
2022-08-21T21:32:35.267Z,22.25769043
2022-08-21T21:33:36.686Z,22.23754883
2022-08-21T21:34:37.183Z,22.22747803
2022-08-21T21:35:38.399Z,22.22747803
2022-08-21T21:37:39.145Z,22.22747803
2022-08-21T21:38:39.619Z,22.22747803
2022-08-21T21:39:40.249Z,22.22747803
2022-08-21T21:40:40.696Z,22.16705322
2022-08-21T21:41:41.395Z,22.16705322
2022-08-21T21:42:41.686Z,22.16705322
2022-08-21T21:43:42.103Z,22.18719482
2022-08-21T21:44:43.458Z,22.20733643
2022-08-21T21:45:43.965Z,22.23754883
2022-08-21T21:46:48.467Z,22.26776123
2022-08-21T21:47:45.695Z,22.30804443
2022-08-21T21:48:46.142Z,22.34832764
2022-08-21T21:49:49.637Z,22.35839844
2022-08-21T21:50:47.137Z,22.34832764
2022-08-21T21:51:47.658Z,22.35839844
2022-08-21T21:52:48.108Z,22.32818604
2022-08-21T21:53:51.440Z,22.30804443
2022-08-21T21:54:49.112Z,22.30804443
2022-08-21T21:55:50.221Z,22.30804443
2022-08-21T21:56:52.584Z,22.29797363
2022-08-21T21:57:52.285Z,22.28790283
2022-08-21T21:58:51.615Z,22.25769043
2022-08-21T21:59:52.174Z,22.25769043
2022-08-21T22:00:53.384Z,22.20733643
2022-08-21T22:01:53.161Z,22.20733643
2022-08-21T22:02:55.076Z,22.23754883
2022-08-21T22:03:54.103Z,22.25769043
2022-08-21T22:04:54.587Z,22.22747803
2022-08-21T22:05:55.777Z,22.18719482
2022-08-21T22:06:56.298Z,22.14691162
2022-08-21T22:07:56.729Z,22.11669922
2022-08-21T22:08:57.213Z,22.08648682
2022-08-21T22:10:30.693Z,22.08648682
2022-08-21T22:11:29.664Z,22.08648682
2022-08-21T22:12:30.023Z,22.08648682
2022-08-21T22:13:30.279Z,22.08648682
2022-08-21T22:14:30.706Z,22.10662842
2022-08-21T22:15:32.012Z,22.10662842
2022-08-21T22:16:32.466Z,22.10662842
2022-08-21T22:17:32.944Z,22.07641602
2022-08-21T22:18:33.375Z,22.04620361
2022-08-21T22:19:33.797Z,22.03613281
2022-08-21T22:20:35.241Z,22.01599121
2022-08-21T22:21:35.486Z,22.00592041
2022-08-21T22:22:36.317Z,21.98577881
2022-08-21T22:23:36.386Z,21.97570801
2022-08-21T22:24:36.822Z,22.00592041
2022-08-21T22:25:38.030Z,22.03613281
2022-08-21T22:26:38.481Z,22.00592041
2022-08-21T22:27:38.970Z,21.95556641
2022-08-21T22:28:39.437Z,21.95556641
2022-08-21T22:29:40.453Z,21.9052124
2022-08-21T22:30:41.011Z,21.925354
2022-08-21T22:31:41.720Z,21.8951416
2022-08-21T22:32:42.818Z,21.8649292
2022-08-21T22:33:42.641Z,21.8548584
2022-08-21T22:34:43.999Z,21.8548584
2022-08-21T22:35:44.978Z,21.8347168
2022-08-21T22:36:45.491Z,21.8347168
2022-08-21T22:37:46.012Z,21.8850708
2022-08-21T22:38:46.406Z,21.8951416
2022-08-21T22:39:46.887Z,21.9052124
2022-08-21T22:40:47.363Z,21.8850708
2022-08-21T22:41:47.919Z,21.8548584
2022-08-21T22:42:48.446Z,21.8347168
2022-08-21T22:43:48.883Z,21.824646
2022-08-21T22:44:49.316Z,21.8145752
2022-08-21T22:45:50.514Z,21.79443359
2022-08-21T22:46:51.016Z,21.74407959
2022-08-21T22:47:51.530Z,21.71386719
2022-08-21T22:48:51.934Z,21.67358398
2022-08-21T22:49:52.346Z,21.66351318
2022-08-21T22:50:52.771Z,21.59301758
2022-08-21T22:51:53.281Z,21.55273438
2022-08-21T22:52:53.825Z,21.51245117
2022-08-21T22:53:54.270Z,21.48223877
2022-08-21T22:54:54.718Z,21.43188477
2022-08-21T22:55:55.978Z,21.42181396
2022-08-21T22:56:56.541Z,21.40167236
2022-08-21T22:57:56.975Z,21.38153076
2022-08-21T22:58:57.862Z,21.37145996
2022-08-21T23:00:29.409Z,21.40167236
2022-08-21T23:01:29.916Z,21.38153076
2022-08-21T23:02:30.400Z,21.38153076
2022-08-21T23:03:30.897Z,21.38153076
2022-08-21T23:04:31.248Z,21.36138916
2022-08-21T23:05:31.678Z,21.33117676
2022-08-21T23:06:32.769Z,21.31103516
2022-08-21T23:07:33.215Z,21.27075195
2022-08-21T23:08:33.676Z,21.26068115
2022-08-21T23:09:34.127Z,21.24053955
2022-08-21T23:10:34.536Z,21.24053955
2022-08-21T23:11:35.021Z,21.26068115
2022-08-21T23:12:35.522Z,21.24053955
2022-08-21T23:13:36.015Z,21.22039795
2022-08-21T23:14:36.379Z,21.24053955
2022-08-21T23:15:37.481Z,21.24053955
2022-08-21T23:16:37.879Z,21.24053955
2022-08-21T23:17:38.438Z,21.21032715
2022-08-21T23:18:38.942Z,21.22039795
2022-08-21T23:19:39.381Z,21.21032715
2022-08-21T23:20:39.803Z,21.24053955
2022-08-21T23:21:40.750Z,21.21032715
2022-08-21T23:22:40.743Z,21.19018555
2022-08-21T23:23:41.178Z,21.18011475
2022-08-21T23:24:46.669Z,21.15997314
2022-08-21T23:25:43.068Z,21.15997314
2022-08-21T23:26:46.905Z,21.15997314
2022-08-21T23:27:43.957Z,21.19018555
2022-08-21T23:28:45.299Z,21.26068115
2022-08-21T23:29:45.725Z,21.27075195
2022-08-21T23:30:46.143Z,21.19018555
2022-08-21T23:31:46.546Z,21.12976074
2022-08-21T23:32:51.560Z,21.11968994
2022-08-21T23:33:47.533Z,21.08947754
2022-08-21T23:34:47.983Z,21.07940674
2022-08-21T23:35:48.971Z,21.07940674
2022-08-21T23:36:49.472Z,21.07940674
2022-08-21T23:37:51.722Z,21.10961914
2022-08-21T23:38:51.320Z,21.11968994
2022-08-21T23:39:52.074Z,21.08947754
2022-08-21T23:40:52.435Z,21.07940674
2022-08-21T23:41:53.021Z,21.08947754
2022-08-21T23:42:53.702Z,21.08947754
2022-08-21T23:43:54.379Z,21.08947754
2022-08-21T23:44:54.753Z,21.02905273
2022-08-21T23:45:56.001Z,20.99884033
2022-08-21T23:46:56.428Z,20.96862793
2022-08-21T23:48:29.607Z,20.96862793
2022-08-21T23:49:28.403Z,20.95855713
2022-08-21T23:50:28.789Z,20.95855713
2022-08-21T23:51:33.808Z,20.97869873
2022-08-21T23:53:30.252Z,21.00891113
2022-08-21T23:54:30.711Z,21.02905273
2022-08-21T23:55:31.123Z,21.00891113
2022-08-21T23:56:32.386Z,21.02905273
2022-08-21T23:57:32.835Z,21.00891113
2022-08-21T23:58:33.387Z,20.96862793
2022-08-21T23:59:33.948Z,20.96862793
